Terminal Aerodrome Forecast
Issued by NWS

Home | Current Version | Previous Version | Text Only | Print | Product List | Glossary On
Versions: 1 2 3 4 5 6 7 8 9 10 11 12 13 14 15 16 17 18 19 20 21 22 23 24 25 26 27 28 29 30 31 32 33 34 35 36 37 38 39 40 41 42 43 44 45 46 47 48
000
FTUS42 KGSP 251300 AAA
TAFHKY
TAF AMD
KHKY 251314Z 2513/2612 02005KT P6SM SCT009 BKN050
      TEMPO 2513/2514 BKN009 BKN050
     FM251700 09004KT P6SM BKN035
     FM252200 09003KT P6SM SCT045
     FM260000 00000KT P6SM SCT045=

USA.gov is the U.S. government's official web portal to all federal, state and local government web resources and services.